sensor_id;sensor_type;location;lat;lon;timestamp;pressure;altitude;pressure_sealevel;temperature;humidity
2563;BME280;1291;51.420;6.970;2023-02-19T00:02:23;100150.56;;;38.40;12.43
2563;BME280;1291;51.420;6.970;2023-02-19T00:04:49;100138.88;;;40.26;10.64
2563;BME280;1291;51.420;6.970;2023-02-19T00:07:14;100138.38;;;41.59;9.99
2563;BME280;1291;51.420;6.970;2023-02-19T00:09:39;100128.69;;;39.32;11.34
2563;BME280;1291;51.420;6.970;2023-02-19T00:12:05;100134.53;;;40.05;11.41
2563;BME280;1291;51.420;6.970;2023-02-19T00:14:30;100136.41;;;41.16;10.24
2563;BME280;1291;51.420;6.970;2023-02-19T00:16:56;100132.78;;;40.79;10.47
2563;BME280;1291;51.420;6.970;2023-02-19T00:19:21;100140.97;;;41.61;9.93
2563;BME280;1291;51.420;6.970;2023-02-19T00:21:50;100137.13;;;42.16;9.41
2563;BME280;1291;51.420;6.970;2023-02-19T00:24:15;100131.16;;;41.32;10.06
2563;BME280;1291;51.420;6.970;2023-02-19T00:26:42;100128.25;;;41.16;10.27
2563;BME280;1291;51.420;6.970;2023-02-19T00:29:17;100125.91;;;42.61;9.37
2563;BME280;1291;51.420;6.970;2023-02-19T00:31:43;100123.59;;;42.40;9.39
2563;BME280;1291;51.420;6.970;2023-02-19T00:34:10;100119.00;;;42.83;9.11
2563;BME280;1291;51.420;6.970;2023-02-19T00:36:37;100105.19;;;42.42;9.23
2563;BME280;1291;51.420;6.970;2023-02-19T00:39:04;100115.91;;;42.44;9.42
2563;BME280;1291;51.420;6.970;2023-02-19T00:41:30;100114.72;;;40.23;10.79
2563;BME280;1291;51.420;6.970;2023-02-19T00:44:05;100105.13;;;39.52;11.98
2563;BME280;1291;51.420;6.970;2023-02-19T00:46:37;100115.94;;;42.10;9.72
2563;BME280;1291;51.420;6.970;2023-02-19T00:49:04;100114.41;;;41.63;9.76
2563;BME280;1291;51.420;6.970;2023-02-19T00:51:35;100103.63;;;42.82;8.93
2563;BME280;1291;51.420;6.970;2023-02-19T00:54:02;100101.91;;;41.78;9.81
2563;BME280;1291;51.420;6.970;2023-02-19T00:56:28;100109.81;;;39.50;11.33
2563;BME280;1291;51.420;6.970;2023-02-19T00:58:56;100096.78;;;39.24;11.82
2563;BME280;1291;51.420;6.970;2023-02-19T01:01:22;100101.03;;;40.70;10.91
2563;BME280;1291;51.420;6.970;2023-02-19T01:03:48;100105.81;;;40.30;10.86
2563;BME280;1291;51.420;6.970;2023-02-19T01:06:15;100093.38;;;40.18;11.12
2563;BME280;1291;51.420;6.970;2023-02-19T01:08:41;100104.66;;;36.78;13.65
2563;BME280;1291;51.420;6.970;2023-02-19T01:11:07;100095.22;;;39.70;11.70
2563;BME280;1291;51.420;6.970;2023-02-19T01:13:33;100098.09;;;40.16;11.19
2563;BME280;1291;51.420;6.970;2023-02-19T01:18:37;100103.19;;;38.44;12.54
2563;BME280;1291;51.420;6.970;2023-02-19T01:21:08;100099.06;;;40.62;10.86
2563;BME280;1291;51.420;6.970;2023-02-19T01:23:36;100097.50;;;41.41;10.02
2563;BME280;1291;51.420;6.970;2023-02-19T01:26:05;100098.53;;;39.64;11.81
2563;BME280;1291;51.420;6.970;2023-02-19T01:28:31;100097.38;;;41.43;10.07
2563;BME280;1291;51.420;6.970;2023-02-19T01:31:03;100097.81;;;39.23;11.37
2563;BME280;1291;51.420;6.970;2023-02-19T01:33:32;100088.72;;;41.29;10.34
2563;BME280;1291;51.420;6.970;2023-02-19T01:36:01;100101.75;;;40.44;10.89
2563;BME280;1291;51.420;6.970;2023-02-19T01:38:28;100094.25;;;39.23;12.35
2563;BME280;1291;51.420;6.970;2023-02-19T01:41:04;100082.94;;;38.98;12.09
2563;BME280;1291;51.420;6.970;2023-02-19T01:43:32;100094.81;;;39.46;11.69
2563;BME280;1291;51.420;6.970;2023-02-19T01:45:57;100089.06;;;39.88;11.62
2563;BME280;1291;51.420;6.970;2023-02-19T01:50:57;100081.34;;;40.21;11.47
2563;BME280;1291;51.420;6.970;2023-02-19T01:53:29;100085.22;;;40.18;11.06
2563;BME280;1291;51.420;6.970;2023-02-19T01:55:58;100092.28;;;41.12;10.23
2563;BME280;1291;51.420;6.970;2023-02-19T01:58:29;100097.59;;;40.68;10.79
2563;BME280;1291;51.420;6.970;2023-02-19T02:00:57;100095.31;;;38.91;11.74
2563;BME280;1291;51.420;6.970;2023-02-19T02:03:23;100100.34;;;40.40;10.95
2563;BME280;1291;51.420;6.970;2023-02-19T02:06:00;100092.81;;;40.14;11.11
2563;BME280;1291;51.420;6.970;2023-02-19T02:08:26;100088.75;;;38.74;12.50
2563;BME280;1291;51.420;6.970;2023-02-19T02:11:11;100088.31;;;38.38;12.46
2563;BME280;1291;51.420;6.970;2023-02-19T02:13:37;100096.13;;;40.08;10.75
2563;BME280;1291;51.420;6.970;2023-02-19T02:16:19;100092.06;;;40.32;10.88
2563;BME280;1291;51.420;6.970;2023-02-19T02:21:58;100105.91;;;41.92;9.78
2563;BME280;1291;51.420;6.970;2023-02-19T02:33:18;100112.88;;;42.13;9.43
2563;BME280;1291;51.420;6.970;2023-02-19T02:38:32;100103.38;;;39.70;11.40
2563;BME280;1291;51.420;6.970;2023-02-19T02:40:59;100107.47;;;40.69;10.64
2563;BME280;1291;51.420;6.970;2023-02-19T02:43:29;100100.91;;;39.97;11.23
2563;BME280;1291;51.420;6.970;2023-02-19T02:45:57;100098.59;;;40.67;10.54
2563;BME280;1291;51.420;6.970;2023-02-19T02:48:25;100107.09;;;41.09;9.96
2563;BME280;1291;51.420;6.970;2023-02-19T02:51:07;100108.06;;;39.98;10.86
2563;BME280;1291;51.420;6.970;2023-02-19T02:53:45;100107.38;;;40.33;10.96
2563;BME280;1291;51.420;6.970;2023-02-19T02:56:31;100106.72;;;40.49;10.86
2563;BME280;1291;51.420;6.970;2023-02-19T02:58:59;100102.84;;;40.51;10.46
2563;BME280;1291;51.420;6.970;2023-02-19T03:01:53;100107.81;;;39.42;11.26
2563;BME280;1291;51.420;6.970;2023-02-19T03:08:09;100099.47;;;41.13;9.83
2563;BME280;1291;51.420;6.970;2023-02-19T03:13:07;100114.47;;;40.06;10.94
2563;BME280;1291;51.420;6.970;2023-02-19T03:15:57;100117.72;;;41.03;10.05
2563;BME280;1291;51.420;6.970;2023-02-19T03:18:50;100125.38;;;41.17;9.40
2563;BME280;1291;51.420;6.970;2023-02-19T03:21:36;100130.13;;;40.97;9.99
2563;BME280;1291;51.420;6.970;2023-02-19T03:24:05;100128.88;;;42.07;9.10
2563;BME280;1291;51.420;6.970;2023-02-19T03:26:51;100132.38;;;41.02;10.05
2563;BME280;1291;51.420;6.970;2023-02-19T03:29:30;100124.50;;;40.43;10.45
2563;BME280;1291;51.420;6.970;2023-02-19T03:32:07;100133.56;;;40.34;10.27
2563;BME280;1291;51.420;6.970;2023-02-19T03:34:37;100146.97;;;41.46;9.45
2563;BME280;1291;51.420;6.970;2023-02-19T03:37:13;100154.16;;;40.74;10.17
2563;BME280;1291;51.420;6.970;2023-02-19T03:39:40;100147.34;;;41.69;9.45
2563;BME280;1291;51.420;6.970;2023-02-19T03:42:19;100156.53;;;40.12;10.28
2563;BME280;1291;51.420;6.970;2023-02-19T03:47:31;100157.84;;;39.79;10.42
2563;BME280;1291;51.420;6.970;2023-02-19T03:53:05;100153.97;;;37.90;11.96
2563;BME280;1291;51.420;6.970;2023-02-19T03:58:23;100158.22;;;40.23;10.17
2563;BME280;1291;51.420;6.970;2023-02-19T04:00:58;100166.22;;;40.34;10.14
2563;BME280;1291;51.420;6.970;2023-02-19T04:03:37;100171.72;;;41.35;9.75
2563;BME280;1291;51.420;6.970;2023-02-19T04:06:11;100175.25;;;42.07;9.22
2563;BME280;1291;51.420;6.970;2023-02-19T04:08:40;100174.47;;;40.52;10.21
2563;BME280;1291;51.420;6.970;2023-02-19T04:11:07;100171.50;;;42.35;8.92
2563;BME280;1291;51.420;6.970;2023-02-19T04:13:37;100179.78;;;44.02;7.93
2563;BME280;1291;51.420;6.970;2023-02-19T04:16:12;100182.88;;;40.59;9.96
2563;BME280;1291;51.420;6.970;2023-02-19T04:18:42;100191.34;;;41.75;9.15
2563;BME280;1291;51.420;6.970;2023-02-19T04:21:09;100191.78;;;42.58;8.90
2563;BME280;1291;51.420;6.970;2023-02-19T04:23:39;100197.41;;;41.50;9.52
2563;BME280;1291;51.420;6.970;2023-02-19T04:26:06;100197.06;;;42.34;8.92
2563;BME280;1291;51.420;6.970;2023-02-19T04:28:33;100194.31;;;43.61;8.04
2563;BME280;1291;51.420;6.970;2023-02-19T04:30:59;100198.69;;;40.83;9.89
2563;BME280;1291;51.420;6.970;2023-02-19T04:33:24;100210.56;;;41.55;9.32
2563;BME280;1291;51.420;6.970;2023-02-19T04:35:49;100214.41;;;41.80;9.19
2563;BME280;1291;51.420;6.970;2023-02-19T04:38:15;100210.09;;;42.14;9.06
2563;BME280;1291;51.420;6.970;2023-02-19T04:40:40;100213.06;;;39.30;10.98
2563;BME280;1291;51.420;6.970;2023-02-19T04:43:05;100217.44;;;39.12;10.97
2563;BME280;1291;51.420;6.970;2023-02-19T04:45:30;100220.69;;;39.66;11.01
2563;BME280;1291;51.420;6.970;2023-02-19T04:47:57;100230.28;;;40.76;9.86
2563;BME280;1291;51.420;6.970;2023-02-19T04:50:25;100226.22;;;40.23;10.01
2563;BME280;1291;51.420;6.970;2023-02-19T04:52:51;100219.56;;;40.55;9.88
2563;BME280;1291;51.420;6.970;2023-02-19T04:55:16;100226.69;;;40.65;10.00
2563;BME280;1291;51.420;6.970;2023-02-19T04:57:42;100227.53;;;41.03;9.79
2563;BME280;1291;51.420;6.970;2023-02-19T05:00:08;100232.25;;;40.74;9.37
2563;BME280;1291;51.420;6.970;2023-02-19T05:02:33;100231.03;;;41.41;9.17
2563;BME280;1291;51.420;6.970;2023-02-19T05:04:59;100236.56;;;41.32;9.36
2563;BME280;1291;51.420;6.970;2023-02-19T05:07:24;100240.84;;;40.31;10.06
2563;BME280;1291;51.420;6.970;2023-02-19T05:09:52;100241.59;;;41.90;9.18
2563;BME280;1291;51.420;6.970;2023-02-19T05:12:18;100247.59;;;41.94;9.16
2563;BME280;1291;51.420;6.970;2023-02-19T05:14:43;100242.38;;;41.64;9.34
2563;BME280;1291;51.420;6.970;2023-02-19T05:17:14;100243.94;;;42.47;8.59
2563;BME280;1291;51.420;6.970;2023-02-19T05:19:40;100253.97;;;41.48;9.04
2563;BME280;1291;51.420;6.970;2023-02-19T05:22:05;100261.50;;;41.37;9.21
2563;BME280;1291;51.420;6.970;2023-02-19T05:24:30;100262.72;;;40.40;9.89
2563;BME280;1291;51.420;6.970;2023-02-19T05:26:56;100271.91;;;41.23;9.37
2563;BME280;1291;51.420;6.970;2023-02-19T05:29:21;100274.25;;;42.70;8.52
2563;BME280;1291;51.420;6.970;2023-02-19T05:31:46;100273.66;;;40.77;9.70
2563;BME280;1291;51.420;6.970;2023-02-19T05:34:16;100274.28;;;40.51;9.86
2563;BME280;1291;51.420;6.970;2023-02-19T05:36:41;100284.53;;;41.88;9.06
2563;BME280;1291;51.420;6.970;2023-02-19T05:39:06;100279.56;;;40.63;9.72
2563;BME280;1291;51.420;6.970;2023-02-19T05:41:33;100285.53;;;40.00;10.30
2563;BME280;1291;51.420;6.970;2023-02-19T05:43:58;100275.72;;;38.77;11.28
2563;BME280;1291;51.420;6.970;2023-02-19T05:46:27;100284.91;;;41.29;9.31
2563;BME280;1291;51.420;6.970;2023-02-19T05:48:54;100284.50;;;41.24;9.59
2563;BME280;1291;51.420;6.970;2023-02-19T05:51:21;100290.94;;;40.39;9.73
2563;BME280;1291;51.420;6.970;2023-02-19T05:53:47;100284.72;;;40.76;9.68
2563;BME280;1291;51.420;6.970;2023-02-19T05:56:32;100297.72;;;40.82;9.70
2563;BME280;1291;51.420;6.970;2023-02-19T05:59:00;100299.13;;;42.15;8.63
2563;BME280;1291;51.420;6.970;2023-02-19T06:01:28;100295.78;;;40.55;9.94
2563;BME280;1291;51.420;6.970;2023-02-19T06:03:57;100306.94;;;39.64;10.75
2563;BME280;1291;51.420;6.970;2023-02-19T06:06:23;100296.50;;;39.79;10.04
2563;BME280;1291;51.420;6.970;2023-02-19T06:08:49;100301.06;;;39.59;10.69
2563;BME280;1291;51.420;6.970;2023-02-19T06:11:16;100302.00;;;38.13;11.46
2563;BME280;1291;51.420;6.970;2023-02-19T06:13:41;100301.94;;;40.57;9.80
2563;BME280;1291;51.420;6.970;2023-02-19T06:16:10;100307.22;;;41.43;9.06
2563;BME280;1291;51.420;6.970;2023-02-19T06:18:35;100307.38;;;39.28;10.45
2563;BME280;1291;51.420;6.970;2023-02-19T06:21:02;100304.53;;;40.29;10.11
2563;BME280;1291;51.420;6.970;2023-02-19T06:23:29;100320.22;;;39.57;10.44
2563;BME280;1291;51.420;6.970;2023-02-19T06:25:54;100299.88;;;38.38;11.38
2563;BME280;1291;51.420;6.970;2023-02-19T06:28:20;100306.69;;;40.06;10.02
2563;BME280;1291;51.420;6.970;2023-02-19T06:30:45;100326.19;;;40.97;9.37
2563;BME280;1291;51.420;6.970;2023-02-19T06:33:10;100319.38;;;41.48;9.22
2563;BME280;1291;51.420;6.970;2023-02-19T06:35:35;100327.59;;;40.44;10.13
2563;BME280;1291;51.420;6.970;2023-02-19T06:38:01;100330.13;;;40.75;9.53
2563;BME280;1291;51.420;6.970;2023-02-19T06:40:27;100334.72;;;39.37;10.69
2563;BME280;1291;51.420;6.970;2023-02-19T06:42:58;100337.31;;;42.15;8.72
2563;BME280;1291;51.420;6.970;2023-02-19T06:45:24;100339.44;;;41.20;9.43
2563;BME280;1291;51.420;6.970;2023-02-19T06:47:55;100346.66;;;40.44;9.76
2563;BME280;1291;51.420;6.970;2023-02-19T06:50:27;100337.31;;;40.57;9.88
2563;BME280;1291;51.420;6.970;2023-02-19T06:52:52;100352.66;;;40.09;9.93
2563;BME280;1291;51.420;6.970;2023-02-19T06:55:17;100353.09;;;39.44;10.54
2563;BME280;1291;51.420;6.970;2023-02-19T06:57:42;100371.59;;;39.60;10.53
2563;BME280;1291;51.420;6.970;2023-02-19T07:00:08;100374.97;;;38.70;10.80
2563;BME280;1291;51.420;6.970;2023-02-19T07:02:34;100362.41;;;39.21;10.88
2563;BME280;1291;51.420;6.970;2023-02-19T07:04:59;100373.56;;;41.52;8.80
2563;BME280;1291;51.420;6.970;2023-02-19T07:07:25;100379.41;;;40.72;9.71
2563;BME280;1291;51.420;6.970;2023-02-19T07:09:50;100380.13;;;38.73;10.45
2563;BME280;1291;51.420;6.970;2023-02-19T07:12:15;100379.97;;;40.85;9.80
2563;BME280;1291;51.420;6.970;2023-02-19T07:14:40;100381.44;;;41.17;9.19
2563;BME280;1291;51.420;6.970;2023-02-19T07:17:06;100396.31;;;40.07;10.12
2563;BME280;1291;51.420;6.970;2023-02-19T07:19:31;100399.84;;;39.88;10.46
2563;BME280;1291;51.420;6.970;2023-02-19T07:21:56;100403.91;;;39.32;10.40
2563;BME280;1291;51.420;6.970;2023-02-19T07:24:22;100412.19;;;40.22;9.95
2563;BME280;1291;51.420;6.970;2023-02-19T07:26:47;100415.03;;;41.08;9.33
2563;BME280;1291;51.420;6.970;2023-02-19T07:29:15;100422.81;;;41.78;8.91
2563;BME280;1291;51.420;6.970;2023-02-19T07:31:41;100431.25;;;39.10;10.63
2563;BME280;1291;51.420;6.970;2023-02-19T07:34:07;100432.38;;;41.26;9.60
2563;BME280;1291;51.420;6.970;2023-02-19T07:36:32;100431.81;;;41.50;9.17
2563;BME280;1291;51.420;6.970;2023-02-19T07:38:58;100439.81;;;42.17;8.48
2563;BME280;1291;51.420;6.970;2023-02-19T07:41:24;100444.25;;;38.95;11.00
2563;BME280;1291;51.420;6.970;2023-02-19T07:43:50;100439.22;;;41.30;9.37
2563;BME280;1291;51.420;6.970;2023-02-19T07:46:16;100450.88;;;41.60;8.89
2563;BME280;1291;51.420;6.970;2023-02-19T07:48:45;100455.63;;;40.43;9.89
2563;BME280;1291;51.420;6.970;2023-02-19T07:51:15;100462.31;;;40.29;9.78
2563;BME280;1291;51.420;6.970;2023-02-19T07:53:43;100458.31;;;41.30;8.98
2563;BME280;1291;51.420;6.970;2023-02-19T07:56:12;100444.53;;;41.13;9.59
2563;BME280;1291;51.420;6.970;2023-02-19T07:58:38;100454.78;;;42.13;8.63
2563;BME280;1291;51.420;6.970;2023-02-19T08:01:18;100462.16;;;41.28;9.06
2563;BME280;1291;51.420;6.970;2023-02-19T08:04:04;100475.28;;;40.66;9.26
2563;BME280;1291;51.420;6.970;2023-02-19T08:06:29;100467.25;;;42.34;8.57
2563;BME280;1291;51.420;6.970;2023-02-19T08:08:54;100468.19;;;41.32;9.05
2563;BME280;1291;51.420;6.970;2023-02-19T08:11:21;100474.06;;;41.17;9.39
2563;BME280;1291;51.420;6.970;2023-02-19T08:14:05;100485.16;;;42.18;8.77
2563;BME280;1291;51.420;6.970;2023-02-19T08:16:30;100492.84;;;42.33;8.57
2563;BME280;1291;51.420;6.970;2023-02-19T08:18:58;100491.19;;;42.22;8.68
2563;BME280;1291;51.420;6.970;2023-02-19T08:21:23;100493.34;;;39.97;10.31
2563;BME280;1291;51.420;6.970;2023-02-19T08:23:49;100494.44;;;40.45;9.86
2563;BME280;1291;51.420;6.970;2023-02-19T08:26:14;100501.97;;;39.50;10.06
2563;BME280;1291;51.420;6.970;2023-02-19T08:28:43;100497.81;;;39.25;10.46
2563;BME280;1291;51.420;6.970;2023-02-19T08:31:10;100485.88;;;40.79;9.53
2563;BME280;1291;51.420;6.970;2023-02-19T08:33:36;100497.41;;;42.78;8.31
2563;BME280;1291;51.420;6.970;2023-02-19T08:36:04;100494.72;;;41.10;9.42
2563;BME280;1291;51.420;6.970;2023-02-19T08:38:32;100488.63;;;41.45;9.27
2563;BME280;1291;51.420;6.970;2023-02-19T08:41:03;100490.19;;;41.48;8.88
2563;BME280;1291;51.420;6.970;2023-02-19T08:43:28;100491.88;;;41.11;9.30
2563;BME280;1291;51.420;6.970;2023-02-19T08:45:53;100503.00;;;41.38;9.20
2563;BME280;1291;51.420;6.970;2023-02-19T08:48:19;100499.59;;;41.16;9.41
2563;BME280;1291;51.420;6.970;2023-02-19T08:50:44;100502.78;;;40.82;9.23
2563;BME280;1291;51.420;6.970;2023-02-19T08:53:16;100506.84;;;41.64;8.88
2563;BME280;1291;51.420;6.970;2023-02-19T08:55:42;100510.69;;;40.95;9.48
2563;BME280;1291;51.420;6.970;2023-02-19T08:58:09;100511.56;;;41.53;8.96
2563;BME280;1291;51.420;6.970;2023-02-19T09:00:34;100517.06;;;42.45;8.39
2563;BME280;1291;51.420;6.970;2023-02-19T09:03:00;100513.06;;;40.49;9.49
2563;BME280;1291;51.420;6.970;2023-02-19T09:05:25;100516.72;;;41.65;8.87
2563;BME280;1291;51.420;6.970;2023-02-19T09:07:51;100523.19;;;41.64;8.94
2563;BME280;1291;51.420;6.970;2023-02-19T09:10:16;100528.28;;;40.62;9.49
2563;BME280;1291;51.420;6.970;2023-02-19T09:12:41;100543.91;;;42.68;8.33
2563;BME280;1291;51.420;6.970;2023-02-19T09:15:07;100542.72;;;42.71;8.14
2563;BME280;1291;51.420;6.970;2023-02-19T09:17:32;100544.22;;;40.26;9.84
2563;BME280;1291;51.420;6.970;2023-02-19T09:19:57;100555.09;;;41.15;9.24
2563;BME280;1291;51.420;6.970;2023-02-19T09:22:23;100556.94;;;41.34;9.38
2563;BME280;1291;51.420;6.970;2023-02-19T09:24:48;100555.91;;;39.55;9.81
2563;BME280;1291;51.420;6.970;2023-02-19T09:27:15;100555.50;;;41.40;8.84
2563;BME280;1291;51.420;6.970;2023-02-19T09:29:41;100565.34;;;41.60;8.80
2563;BME280;1291;51.420;6.970;2023-02-19T09:32:09;100561.47;;;41.73;8.84
2563;BME280;1291;51.420;6.970;2023-02-19T09:34:35;100571.53;;;41.53;9.19
2563;BME280;1291;51.420;6.970;2023-02-19T09:37:00;100559.25;;;42.69;8.38
2563;BME280;1291;51.420;6.970;2023-02-19T09:39:26;100555.78;;;42.31;8.67
2563;BME280;1291;51.420;6.970;2023-02-19T09:41:57;100555.16;;;39.95;10.21
2563;BME280;1291;51.420;6.970;2023-02-19T09:44:34;100566.59;;;40.99;9.10
2563;BME280;1291;51.420;6.970;2023-02-19T09:47:01;100563.84;;;40.89;9.66
2563;BME280;1291;51.420;6.970;2023-02-19T09:49:39;100570.44;;;40.97;9.21
2563;BME280;1291;51.420;6.970;2023-02-19T09:52:17;100576.97;;;38.88;10.72
2563;BME280;1291;51.420;6.970;2023-02-19T09:54:44;100577.84;;;42.00;8.74
2563;BME280;1291;51.420;6.970;2023-02-19T09:57:16;100591.50;;;43.63;7.63
2563;BME280;1291;51.420;6.970;2023-02-19T09:59:51;100591.25;;;42.31;8.43
2563;BME280;1291;51.420;6.970;2023-02-19T10:02:22;100603.06;;;42.50;8.42
2563;BME280;1291;51.420;6.970;2023-02-19T10:04:49;100600.53;;;42.11;8.62
2563;BME280;1291;51.420;6.970;2023-02-19T10:07:18;100619.16;;;42.25;8.48
2563;BME280;1291;51.420;6.970;2023-02-19T10:09:45;100630.47;;;43.21;8.00
2563;BME280;1291;51.420;6.970;2023-02-19T10:12:22;100630.69;;;41.33;9.10
2563;BME280;1291;51.420;6.970;2023-02-19T10:14:50;100642.59;;;42.73;8.13
2563;BME280;1291;51.420;6.970;2023-02-19T10:17:23;100649.19;;;43.96;7.38
2563;BME280;1291;51.420;6.970;2023-02-19T10:19:50;100644.00;;;40.46;9.36
2563;BME280;1291;51.420;6.970;2023-02-19T10:22:16;100632.22;;;42.21;8.41
2563;BME280;1291;51.420;6.970;2023-02-19T10:24:43;100643.75;;;41.19;8.65
2563;BME280;1291;51.420;6.970;2023-02-19T10:27:19;100656.22;;;41.61;8.50
2563;BME280;1291;51.420;6.970;2023-02-19T10:29:46;100659.31;;;42.70;8.07
2563;BME280;1291;51.420;6.970;2023-02-19T10:32:20;100662.00;;;42.15;8.13
2563;BME280;1291;51.420;6.970;2023-02-19T10:37:31;100669.56;;;41.64;8.78
2563;BME280;1291;51.420;6.970;2023-02-19T10:39:56;100672.53;;;41.51;8.68
2563;BME280;1291;51.420;6.970;2023-02-19T10:42:22;100677.47;;;40.16;9.47
2563;BME280;1291;51.420;6.970;2023-02-19T10:44:54;100682.88;;;40.68;9.65
2563;BME280;1291;51.420;6.970;2023-02-19T10:47:25;100671.72;;;43.46;7.61
2563;BME280;1291;51.420;6.970;2023-02-19T10:49:52;100671.34;;;43.85;7.41
2563;BME280;1291;51.420;6.970;2023-02-19T10:52:23;100669.63;;;42.01;8.32
2563;BME280;1291;51.420;6.970;2023-02-19T10:54:55;100679.25;;;42.43;8.15
2563;BME280;1291;51.420;6.970;2023-02-19T10:57:27;100671.75;;;43.18;7.90
2563;BME280;1291;51.420;6.970;2023-02-19T11:00:18;100675.00;;;42.31;8.31
2563;BME280;1291;51.420;6.970;2023-02-19T11:02:46;100690.94;;;41.68;9.19
2563;BME280;1291;51.420;6.970;2023-02-19T11:07:49;100687.69;;;41.15;9.10
2563;BME280;1291;51.420;6.970;2023-02-19T11:10:39;100709.03;;;39.65;9.95
2563;BME280;1291;51.420;6.970;2023-02-19T11:13:13;100700.06;;;42.06;8.36
2563;BME280;1291;51.420;6.970;2023-02-19T11:15:40;100695.75;;;41.16;9.13
2563;BME280;1291;51.420;6.970;2023-02-19T11:20:54;100702.78;;;43.09;7.85
2563;BME280;1291;51.420;6.970;2023-02-19T11:23:31;100699.63;;;40.73;9.32
2563;BME280;1291;51.420;6.970;2023-02-19T11:26:00;100705.75;;;40.56;9.18
2563;BME280;1291;51.420;6.970;2023-02-19T11:31:12;100694.44;;;41.01;8.92
2563;BME280;1291;51.420;6.970;2023-02-19T11:36:41;100690.13;;;40.98;8.81
2563;BME280;1291;51.420;6.970;2023-02-19T11:55:55;100688.13;;;43.90;7.47
2563;BME280;1291;51.420;6.970;2023-02-19T12:01:16;100677.19;;;43.46;7.78
2563;BME280;1291;51.420;6.970;2023-02-19T12:09:49;100691.34;;;39.71;9.98
2563;BME280;1291;51.420;6.970;2023-02-19T12:15:20;100694.69;;;40.47;9.60
2563;BME280;1291;51.420;6.970;2023-02-19T12:28:28;100704.13;;;41.63;8.36
2563;BME280;1291;51.420;6.970;2023-02-19T12:42:12;100736.59;;;40.35;9.20
2563;BME280;1291;51.420;6.970;2023-02-19T12:44:46;100723.66;;;40.89;9.31
2563;BME280;1291;51.420;6.970;2023-02-19T12:47:27;100723.19;;;40.43;9.29
2563;BME280;1291;51.420;6.970;2023-02-19T12:50:04;100720.09;;;40.98;8.83
2563;BME280;1291;51.420;6.970;2023-02-19T12:52:36;100725.09;;;41.03;8.65
2563;BME280;1291;51.420;6.970;2023-02-19T12:55:22;100721.59;;;40.41;8.81
2563;BME280;1291;51.420;6.970;2023-02-19T12:57:50;100720.91;;;41.49;8.46
2563;BME280;1291;51.420;6.970;2023-02-19T13:00:42;100715.81;;;42.97;7.53
2563;BME280;1291;51.420;6.970;2023-02-19T13:06:00;100724.53;;;43.01;7.35
2563;BME280;1291;51.420;6.970;2023-02-19T13:08:44;100731.94;;;41.96;8.01
2563;BME280;1291;51.420;6.970;2023-02-19T13:11:19;100733.69;;;42.54;7.73
2563;BME280;1291;51.420;6.970;2023-02-19T13:13:50;100726.66;;;42.42;7.89
2563;BME280;1291;51.420;6.970;2023-02-19T13:16:18;100728.34;;;42.15;7.77
2563;BME280;1291;51.420;6.970;2023-02-19T13:18:48;100730.66;;;40.30;9.26
2563;BME280;1291;51.420;6.970;2023-02-19T13:21:16;100728.50;;;41.94;7.70
2563;BME280;1291;51.420;6.970;2023-02-19T13:24:08;100730.50;;;41.92;8.13
2563;BME280;1291;51.420;6.970;2023-02-19T13:32:24;100727.72;;;41.14;8.28
2563;BME280;1291;51.420;6.970;2023-02-19T13:35:11;100734.44;;;39.00;9.71
2563;BME280;1291;51.420;6.970;2023-02-19T13:37:42;100742.56;;;42.09;7.97
2563;BME280;1291;51.420;6.970;2023-02-19T13:42:56;100752.19;;;42.03;7.72
2563;BME280;1291;51.420;6.970;2023-02-19T13:45:32;100748.91;;;42.84;7.46
2563;BME280;1291;51.420;6.970;2023-02-19T13:48:01;100747.19;;;43.75;6.67
2563;BME280;1291;51.420;6.970;2023-02-19T13:50:36;100755.50;;;41.87;8.08
2563;BME280;1291;51.420;6.970;2023-02-19T14:04:58;100776.63;;;42.62;7.52
2563;BME280;1291;51.420;6.970;2023-02-19T14:09:49;100786.63;;;41.05;8.91
2563;BME280;1291;51.420;6.970;2023-02-19T14:14:41;100793.16;;;40.93;8.62
2563;BME280;1291;51.420;6.970;2023-02-19T14:30:57;100816.75;;;41.44;8.50
2563;BME280;1291;51.420;6.970;2023-02-19T14:33:36;100809.56;;;38.54;10.48
2563;BME280;1291;51.420;6.970;2023-02-19T14:39:15;100818.69;;;40.92;9.06
2563;BME280;1291;51.420;6.970;2023-02-19T14:41:46;100805.28;;;42.48;8.09
2563;BME280;1291;51.420;6.970;2023-02-19T14:44:18;100808.31;;;41.67;8.48
2563;BME280;1291;51.420;6.970;2023-02-19T14:47:06;100811.91;;;42.16;8.23
2563;BME280;1291;51.420;6.970;2023-02-19T14:49:40;100810.22;;;42.72;7.73
2563;BME280;1291;51.420;6.970;2023-02-19T14:52:16;100809.47;;;42.23;8.01
2563;BME280;1291;51.420;6.970;2023-02-19T14:54:51;100799.91;;;43.31;7.30
2563;BME280;1291;51.420;6.970;2023-02-19T14:57:21;100813.19;;;41.63;8.50
2563;BME280;1291;51.420;6.970;2023-02-19T14:59:55;100796.09;;;42.20;7.94
2563;BME280;1291;51.420;6.970;2023-02-19T15:02:22;100797.97;;;41.90;8.33
2563;BME280;1291;51.420;6.970;2023-02-19T15:04:51;100797.63;;;42.89;7.43
2563;BME280;1291;51.420;6.970;2023-02-19T15:07:20;100795.78;;;41.04;8.60
2563;BME280;1291;51.420;6.970;2023-02-19T15:09:50;100790.00;;;43.20;7.32
2563;BME280;1291;51.420;6.970;2023-02-19T15:12:18;100784.34;;;43.04;7.67
2563;BME280;1291;51.420;6.970;2023-02-19T15:14:45;100794.34;;;43.41;7.41
2563;BME280;1291;51.420;6.970;2023-02-19T15:17:15;100785.44;;;42.46;7.88
2563;BME280;1291;51.420;6.970;2023-02-19T15:19:43;100775.38;;;42.46;7.73
2563;BME280;1291;51.420;6.970;2023-02-19T15:22:19;100764.56;;;41.08;8.67
2563;BME280;1291;51.420;6.970;2023-02-19T15:24:45;100759.22;;;42.06;8.13
2563;BME280;1291;51.420;6.970;2023-02-19T15:27:22;100750.91;;;42.07;8.11
2563;BME280;1291;51.420;6.970;2023-02-19T15:29:50;100745.03;;;40.94;8.96
2563;BME280;1291;51.420;6.970;2023-02-19T15:32:21;100741.63;;;43.31;7.61
2563;BME280;1291;51.420;6.970;2023-02-19T15:34:58;100747.22;;;43.11;7.84
2563;BME280;1291;51.420;6.970;2023-02-19T15:37:26;100738.75;;;42.30;8.15
2563;BME280;1291;51.420;6.970;2023-02-19T15:39:53;100730.38;;;39.38;9.60
2563;BME280;1291;51.420;6.970;2023-02-19T15:42:30;100722.34;;;42.49;7.95
2563;BME280;1291;51.420;6.970;2023-02-19T15:45:12;100737.97;;;41.51;8.44
2563;BME280;1291;51.420;6.970;2023-02-19T15:47:44;100737.03;;;42.38;8.06
2563;BME280;1291;51.420;6.970;2023-02-19T15:50:30;100732.38;;;41.92;8.23
2563;BME280;1291;51.420;6.970;2023-02-19T15:52:59;100740.19;;;42.71;7.78
2563;BME280;1291;51.420;6.970;2023-02-19T15:58:10;100752.72;;;38.52;10.49